RYR4SJ EHEH-LCPH
Flight info
| Callsign | RYR4SJ |
|---|---|
| Flight time | 3h 35m |
| Altitude | 33000 |
| Route | VELNI DCT ONUNE DCT GMH DCT NEGIX DCT DINKU DCT BESNI DCT LATLO DCT OBEDI DCT PODET/N0461F350 DCT AGLIB DCT YULHU DCT VABEK UL603 OLOTA DCT RUGAS DCT RIKSO UP14 ZAFLE DCT BENEM DCT EVENO DCT DASNI/N0462F330 DCT TOBAL |
| Aircraft | B738/M-SDE2E3FGHIRWXY/LB1 |
Departure
| Time | 2026-05-05 16:20 |
|---|---|
| Airport | Eindhoven Airport (EHEH) |
Arrival
| Time | 2026-05-05 19:56 |
|---|---|
| Airport | Paphos International Airport (LCPH) |
| Time | Latitude | Longitude | Altitude | Speed | Heading |
|---|---|---|---|---|---|
| 2026-05-05 15:47 | 51.45821 | 5.39017 | 70 ft | 0 kts | 125° |
| 2026-05-05 16:09 | 51.45825 | 5.39009 | 68 ft | 4 kts | 125° |
| 2026-05-05 16:09 | 51.45840 | 5.38974 | 74 ft | 4 kts | 125° |
| 2026-05-05 16:09 | 51.45853 | 5.38944 | 68 ft | 4 kts | 136° |
| 2026-05-05 16:10 | 51.45873 | 5.38933 | 74 ft | 4 kts | 197° |
| 2026-05-05 16:10 | 51.45894 | 5.38948 | 67 ft | 1 kts | 215° |
| 2026-05-05 16:10 | 51.45895 | 5.38949 | 74 ft | 1 kts | 215° |
| 2026-05-05 16:13 | 51.45894 | 5.38949 | 74 ft | 0 kts | 215° |
| 2026-05-05 16:13 | 51.45865 | 5.38916 | 72 ft | 10 kts | 215° |
| 2026-05-05 16:13 | 51.45807 | 5.38850 | 74 ft | 10 kts | 218° |
| 2026-05-05 16:14 | 51.45825 | 5.38704 | 74 ft | 0 kts | 307° |
| 2026-05-05 16:14 | 51.45873 | 5.38599 | 70 ft | 14 kts | 305° |
| 2026-05-05 16:15 | 51.45994 | 5.38319 | 66 ft | 15 kts | 296° |
| 2026-05-05 16:15 | 51.45871 | 5.38134 | 71 ft | 16 kts | 214° |
| 2026-05-05 16:16 | 51.45581 | 5.37807 | 72 ft | 31 kts | 215° |
| 2026-05-05 16:16 | 51.45258 | 5.37446 | 65 ft | 26 kts | 215° |
| 2026-05-05 16:17 | 51.44989 | 5.37145 | 70 ft | 21 kts | 215° |
| 2026-05-05 16:17 | 51.44856 | 5.36995 | 68 ft | 27 kts | 215° |
| 2026-05-05 16:18 | 51.44524 | 5.36624 | 68 ft | 27 kts | 215° |
| 2026-05-05 16:18 | 51.44376 | 5.36457 | 71 ft | 25 kts | 215° |
| 2026-05-05 16:18 | 51.44125 | 5.36177 | 66 ft | 20 kts | 216° |
| 2026-05-05 16:19 | 51.44016 | 5.36067 | 69 ft | 17 kts | 189° |
| 2026-05-05 16:19 | 51.43943 | 5.36178 | 69 ft | 14 kts | 114° |
| 2026-05-05 16:19 | 51.43978 | 5.36292 | 65 ft | 0 kts | 34° |
| 2026-05-05 16:20 | 51.44672 | 5.37069 | 73 ft | 127 kts | 35° |
| 2026-05-05 16:20 | 51.46576 | 5.39209 | 755 ft | 184 kts | 35° |
| 2026-05-05 16:21 | 51.48672 | 5.41596 | 2073 ft | 203 kts | 34° |
| 2026-05-05 16:22 | 51.51510 | 5.46791 | 3834 ft | 223 kts | 89° |
| 2026-05-05 16:22 | 51.50711 | 5.51741 | 5136 ft | 234 kts | 108° |
| 2026-05-05 16:23 | 51.49643 | 5.56757 | 6177 ft | 240 kts | 108° |
| 2026-05-05 16:23 | 51.49159 | 5.59401 | 6543 ft | 258 kts | 102° |
| 2026-05-05 16:23 | 51.48547 | 5.65396 | 7514 ft | 280 kts | 85° |
| 2026-05-05 16:24 | 51.48789 | 5.68507 | 8251 ft | 283 kts | 81° |
| 2026-05-05 16:24 | 51.49081 | 5.71649 | 8930 ft | 287 kts | 81° |
| 2026-05-05 16:24 | 51.49639 | 5.78069 | 10233 ft | 297 kts | 82° |
| 2026-05-05 16:25 | 51.49912 | 5.81469 | 10430 ft | 318 kts | 83° |
| 2026-05-05 16:25 | 51.50477 | 5.88931 | 10772 ft | 359 kts | 84° |
| 2026-05-05 16:25 | 51.50775 | 5.93013 | 10941 ft | 377 kts | 84° |
| 2026-05-05 16:26 | 51.51390 | 6.01548 | 11966 ft | 388 kts | 84° |
| 2026-05-05 16:26 | 51.52007 | 6.10221 | 13163 ft | 394 kts | 84° |
| 2026-05-05 16:27 | 51.52317 | 6.14617 | 13711 ft | 398 kts | 84° |
| 2026-05-05 16:27 | 51.52566 | 6.19056 | 14269 ft | 401 kts | 90° |
| 2026-05-05 16:27 | 51.52369 | 6.23521 | 14800 ft | 402 kts | 101° |
| 2026-05-05 16:27 | 51.51815 | 6.27943 | 15337 ft | 405 kts | 103° |
| 2026-05-05 16:28 | 51.51228 | 6.32386 | 15851 ft | 408 kts | 103° |
| 2026-05-05 16:28 | 51.50636 | 6.36869 | 16346 ft | 412 kts | 103° |
| 2026-05-05 16:28 | 51.50046 | 6.41381 | 16828 ft | 415 kts | 103° |
| 2026-05-05 16:28 | 51.49467 | 6.45866 | 17298 ft | 418 kts | 103° |
| 2026-05-05 16:29 | 51.48878 | 6.50457 | 17775 ft | 421 kts | 103° |
| 2026-05-05 16:29 | 51.48288 | 6.55071 | 18222 ft | 424 kts | 103° |
| 2026-05-05 16:29 | 51.47695 | 6.59711 | 18661 ft | 427 kts | 103° |
| 2026-05-05 16:29 | 51.47095 | 6.64394 | 19084 ft | 430 kts | 103° |
| 2026-05-05 16:30 | 51.46488 | 6.69116 | 19495 ft | 433 kts | 103° |
| 2026-05-05 16:30 | 51.45875 | 6.73874 | 19902 ft | 436 kts | 103° |
| 2026-05-05 16:30 | 51.45256 | 6.78657 | 20314 ft | 439 kts | 103° |
| 2026-05-05 16:30 | 51.44631 | 6.83469 | 20690 ft | 442 kts | 103° |
| 2026-05-05 16:31 | 51.44006 | 6.88263 | 21054 ft | 445 kts | 104° |
| 2026-05-05 16:31 | 51.43371 | 6.93121 | 21410 ft | 448 kts | 104° |
| 2026-05-05 16:31 | 51.42727 | 6.98028 | 21747 ft | 450 kts | 104° |
| 2026-05-05 16:31 | 51.42078 | 7.02952 | 22085 ft | 453 kts | 104° |
| 2026-05-05 16:32 | 51.41424 | 7.07902 | 22419 ft | 455 kts | 104° |
| 2026-05-05 16:32 | 51.40765 | 7.12880 | 22743 ft | 458 kts | 104° |
| 2026-05-05 16:32 | 51.40099 | 7.17886 | 23042 ft | 461 kts | 104° |
| 2026-05-05 16:32 | 51.39428 | 7.22910 | 23338 ft | 463 kts | 104° |
| 2026-05-05 16:33 | 51.38751 | 7.27975 | 23624 ft | 465 kts | 104° |
| 2026-05-05 16:33 | 51.38069 | 7.33055 | 23921 ft | 468 kts | 104° |
| 2026-05-05 16:33 | 51.37346 | 7.38125 | 24188 ft | 469 kts | 108° |
| 2026-05-05 16:33 | 51.36220 | 7.43028 | 24456 ft | 468 kts | 117° |
| 2026-05-05 16:34 | 51.34632 | 7.47552 | 24747 ft | 466 kts | 127° |
| 2026-05-05 16:34 | 51.32806 | 7.51836 | 25041 ft | 467 kts | 127° |
| 2026-05-05 16:34 | 51.30985 | 7.56083 | 25315 ft | 469 kts | 127° |
| 2026-05-05 16:34 | 51.29151 | 7.60402 | 25587 ft | 471 kts | 127° |
| 2026-05-05 16:35 | 51.27322 | 7.64756 | 25856 ft | 472 kts | 127° |
| 2026-05-05 16:35 | 51.25501 | 7.69119 | 26110 ft | 474 kts | 127° |
| 2026-05-05 16:35 | 51.23674 | 7.73506 | 26389 ft | 474 kts | 127° |
| 2026-05-05 16:35 | 51.21851 | 7.77877 | 26772 ft | 472 kts | 127° |
| 2026-05-05 16:36 | 51.20030 | 7.82227 | 27168 ft | 470 kts | 127° |
| 2026-05-05 16:36 | 51.18041 | 7.86321 | 27520 ft | 465 kts | 136° |
| 2026-05-05 16:36 | 51.15678 | 7.89795 | 27864 ft | 460 kts | 145° |
| 2026-05-05 16:36 | 51.13973 | 7.91772 | 28098 ft | 457 kts | 150° |
| 2026-05-05 16:37 | 51.11215 | 7.94213 | 28474 ft | 452 kts | 156° |
| 2026-05-05 16:37 | 51.08405 | 7.96461 | 28852 ft | 450 kts | 156° |
| 2026-05-05 16:37 | 51.05612 | 7.98690 | 29201 ft | 448 kts | 156° |
| 2026-05-05 16:37 | 51.01928 | 8.01646 | 29656 ft | 447 kts | 156° |
| 2026-05-05 16:38 | 51.00052 | 8.03161 | 29848 ft | 447 kts | 156° |
| 2026-05-05 16:38 | 50.97284 | 8.05404 | 30148 ft | 446 kts | 156° |
| 2026-05-05 16:38 | 50.94522 | 8.07649 | 30491 ft | 444 kts | 156° |
| 2026-05-05 16:38 | 50.91819 | 8.09848 | 30850 ft | 441 kts | 156° |
| 2026-05-05 16:39 | 50.89091 | 8.12065 | 31167 ft | 440 kts | 156° |
| 2026-05-05 16:39 | 50.86372 | 8.14272 | 31453 ft | 439 kts | 156° |
| 2026-05-05 16:39 | 50.83654 | 8.16475 | 31746 ft | 438 kts | 156° |
| 2026-05-05 16:39 | 50.80954 | 8.18660 | 32037 ft | 436 kts | 156° |
| 2026-05-05 16:40 | 50.78252 | 8.20844 | 32310 ft | 435 kts | 156° |
| 2026-05-05 16:40 | 50.75559 | 8.23019 | 32587 ft | 434 kts | 156° |
| 2026-05-05 16:40 | 50.72877 | 8.25180 | 32825 ft | 433 kts | 156° |
| 2026-05-05 16:40 | 50.70182 | 8.27347 | 32816 ft | 436 kts | 156° |
| 2026-05-05 16:41 | 50.64783 | 8.31685 | 32822 ft | 432 kts | 156° |
| 2026-05-05 16:41 | 50.59432 | 8.35974 | 32828 ft | 429 kts | 156° |
| 2026-05-05 16:42 | 50.54151 | 8.40196 | 32831 ft | 427 kts | 156° |
| 2026-05-05 16:42 | 50.48854 | 8.44419 | 32838 ft | 426 kts | 156° |
| 2026-05-05 16:43 | 50.43562 | 8.48628 | 32838 ft | 426 kts | 156° |
| 2026-05-05 16:43 | 50.38350 | 8.53114 | 32825 ft | 430 kts | 148° |
| 2026-05-05 16:44 | 50.33914 | 8.59509 | 32847 ft | 436 kts | 136° |
| 2026-05-05 16:44 | 50.29796 | 8.66509 | 32829 ft | 438 kts | 136° |
| 2026-05-05 16:45 | 50.26210 | 8.72565 | 32833 ft | 441 kts | 137° |
| 2026-05-05 16:45 | 50.24103 | 8.76094 | 32970 ft | 442 kts | 137° |
| 2026-05-05 16:46 | 50.22006 | 8.79595 | 33231 ft | 441 kts | 137° |
| 2026-05-05 16:46 | 50.19913 | 8.83080 | 33544 ft | 439 kts | 137° |
| 2026-05-05 16:46 | 50.17826 | 8.86547 | 33831 ft | 436 kts | 137° |
| 2026-05-05 16:46 | 50.15879 | 8.89775 | 34043 ft | 436 kts | 137° |
| 2026-05-05 16:47 | 50.13492 | 8.93728 | 34227 ft | 437 kts | 137° |
| 2026-05-05 16:47 | 50.10950 | 8.97930 | 34396 ft | 438 kts | 137° |
| 2026-05-05 16:48 | 50.08852 | 9.01392 | 34584 ft | 438 kts | 137° |
| 2026-05-05 16:48 | 50.07771 | 9.03176 | 34683 ft | 437 kts | 137° |
| 2026-05-05 16:48 | 50.05689 | 9.06607 | 34804 ft | 437 kts | 137° |
| 2026-05-05 16:48 | 50.03590 | 9.10060 | 34816 ft | 440 kts | 137° |
| 2026-05-05 16:49 | 49.99966 | 9.16011 | 34824 ft | 441 kts | 137° |
| 2026-05-05 16:49 | 49.97025 | 9.20832 | 34835 ft | 440 kts | 137° |
| 2026-05-05 16:50 | 49.92854 | 9.27655 | 34832 ft | 439 kts | 137° |
| 2026-05-05 16:50 | 49.88647 | 9.34516 | 34838 ft | 438 kts | 137° |
| 2026-05-05 16:51 | 49.84448 | 9.41342 | 34833 ft | 438 kts | 137° |
| 2026-05-05 16:51 | 49.82942 | 9.43787 | 34830 ft | 437 kts | 137° |
| 2026-05-05 16:52 | 49.78742 | 9.50593 | 34836 ft | 437 kts | 137° |
| 2026-05-05 16:52 | 49.74543 | 9.57375 | 34831 ft | 437 kts | 137° |
| 2026-05-05 16:53 | 49.70340 | 9.64150 | 34839 ft | 436 kts | 137° |
| 2026-05-05 16:53 | 49.66137 | 9.70905 | 34835 ft | 437 kts | 137° |
| 2026-05-05 16:54 | 49.61917 | 9.77670 | 34833 ft | 436 kts | 137° |
| 2026-05-05 16:54 | 49.57701 | 9.84410 | 34834 ft | 437 kts | 137° |
| 2026-05-05 16:55 | 49.53473 | 9.91154 | 34832 ft | 437 kts | 137° |
| 2026-05-05 16:55 | 49.49248 | 9.97878 | 34833 ft | 438 kts | 137° |
| 2026-05-05 16:56 | 49.46157 | 10.02782 | 34819 ft | 438 kts | 137° |
| 2026-05-05 16:56 | 49.41903 | 10.09515 | 34838 ft | 439 kts | 137° |
| 2026-05-05 16:57 | 49.40469 | 10.11781 | 34832 ft | 439 kts | 137° |
| 2026-05-05 16:57 | 49.38564 | 10.14789 | 34833 ft | 440 kts | 137° |
| 2026-05-05 16:58 | 49.34293 | 10.21519 | 34831 ft | 441 kts | 137° |
| 2026-05-05 16:58 | 49.30010 | 10.28252 | 34832 ft | 441 kts | 138° |
| 2026-05-05 16:59 | 49.25717 | 10.34985 | 34832 ft | 442 kts | 138° |
| 2026-05-05 16:59 | 49.21389 | 10.41680 | 34835 ft | 442 kts | 139° |
| 2026-05-05 17:00 | 49.16970 | 10.48239 | 34833 ft | 443 kts | 140° |
| 2026-05-05 17:00 | 49.12558 | 10.54741 | 34835 ft | 444 kts | 140° |
| 2026-05-05 17:01 | 49.08111 | 10.61313 | 34838 ft | 445 kts | 139° |
| 2026-05-05 17:01 | 49.03660 | 10.67891 | 34832 ft | 446 kts | 139° |
| 2026-05-05 17:02 | 48.99198 | 10.74473 | 34831 ft | 447 kts | 139° |
| 2026-05-05 17:02 | 48.94720 | 10.81057 | 34832 ft | 447 kts | 139° |
| 2026-05-05 17:03 | 48.90241 | 10.87627 | 34823 ft | 448 kts | 139° |
| 2026-05-05 17:03 | 48.85746 | 10.94203 | 34811 ft | 448 kts | 140° |
| 2026-05-05 17:04 | 48.81247 | 11.00765 | 34821 ft | 449 kts | 140° |
| 2026-05-05 17:04 | 48.76739 | 11.07325 | 34804 ft | 449 kts | 140° |
| 2026-05-05 17:05 | 48.72229 | 11.13869 | 34807 ft | 450 kts | 140° |
| 2026-05-05 17:05 | 48.67715 | 11.20409 | 34807 ft | 450 kts | 140° |
| 2026-05-05 17:06 | 48.63222 | 11.27020 | 34808 ft | 451 kts | 137° |
| 2026-05-05 17:06 | 48.59007 | 11.33964 | 34806 ft | 452 kts | 135° |
| 2026-05-05 17:07 | 48.54810 | 11.41055 | 34808 ft | 452 kts | 135° |
| 2026-05-05 17:07 | 48.50597 | 11.48103 | 34808 ft | 452 kts | 136° |
| 2026-05-05 17:08 | 48.46352 | 11.55134 | 34811 ft | 453 kts | 136° |
| 2026-05-05 17:08 | 48.42098 | 11.62144 | 34810 ft | 454 kts | 136° |
| 2026-05-05 17:09 | 48.37827 | 11.69156 | 34806 ft | 454 kts | 136° |
| 2026-05-05 17:09 | 48.33580 | 11.76114 | 34809 ft | 455 kts | 136° |
| 2026-05-05 17:10 | 48.29292 | 11.83125 | 34809 ft | 455 kts | 136° |
| 2026-05-05 17:10 | 48.24999 | 11.90124 | 34806 ft | 456 kts | 136° |
| 2026-05-05 17:11 | 48.20692 | 11.97126 | 34800 ft | 457 kts | 136° |
| 2026-05-05 17:11 | 48.16374 | 12.04128 | 34799 ft | 458 kts | 136° |
| 2026-05-05 17:12 | 48.12047 | 12.11126 | 34812 ft | 458 kts | 136° |
| 2026-05-05 17:12 | 48.07713 | 12.18115 | 34805 ft | 459 kts | 136° |
| 2026-05-05 17:13 | 48.03381 | 12.25085 | 34793 ft | 459 kts | 136° |
| 2026-05-05 17:13 | 47.99026 | 12.32072 | 34788 ft | 460 kts | 136° |
| 2026-05-05 17:14 | 47.94660 | 12.39061 | 34784 ft | 460 kts | 136° |
| 2026-05-05 17:14 | 47.90292 | 12.46031 | 34791 ft | 459 kts | 136° |
| 2026-05-05 17:15 | 47.85921 | 12.52984 | 34798 ft | 459 kts | 136° |
| 2026-05-05 17:15 | 47.81551 | 12.59924 | 34789 ft | 459 kts | 136° |
| 2026-05-05 17:16 | 47.77176 | 12.66852 | 34786 ft | 459 kts | 136° |
| 2026-05-05 17:16 | 47.72792 | 12.73779 | 34780 ft | 460 kts | 136° |
| 2026-05-05 17:17 | 47.68428 | 12.80653 | 34784 ft | 460 kts | 136° |
| 2026-05-05 17:17 | 47.63941 | 12.87410 | 34796 ft | 460 kts | 139° |
| 2026-05-05 17:18 | 47.59365 | 12.94105 | 34792 ft | 463 kts | 139° |
| 2026-05-05 17:18 | 47.54764 | 13.00847 | 34802 ft | 465 kts | 138° |
| 2026-05-05 17:19 | 47.50191 | 13.07564 | 34792 ft | 467 kts | 138° |
| 2026-05-05 17:19 | 47.45583 | 13.14330 | 34789 ft | 468 kts | 138° |
| 2026-05-05 17:20 | 47.40962 | 13.21095 | 34799 ft | 468 kts | 138° |
| 2026-05-05 17:20 | 47.37077 | 13.26769 | 34820 ft | 469 kts | 138° |
| 2026-05-05 17:21 | 47.32498 | 13.33554 | 34832 ft | 471 kts | 134° |
| 2026-05-05 17:22 | 47.26702 | 13.45303 | 34849 ft | 474 kts | 127° |
| 2026-05-05 17:22 | 47.22933 | 13.53258 | 34841 ft | 473 kts | 128° |
| 2026-05-05 17:23 | 47.19126 | 13.61146 | 34851 ft | 473 kts | 128° |
| 2026-05-05 17:23 | 47.15288 | 13.69007 | 34869 ft | 473 kts | 128° |
| 2026-05-05 17:24 | 47.11443 | 13.76842 | 34883 ft | 472 kts | 128° |
| 2026-05-05 17:24 | 47.07631 | 13.84589 | 34896 ft | 470 kts | 128° |
| 2026-05-05 17:25 | 47.03776 | 13.92410 | 34900 ft | 470 kts | 128° |
| 2026-05-05 17:25 | 46.99966 | 14.00123 | 34900 ft | 470 kts | 128° |
| 2026-05-05 17:26 | 46.96129 | 14.07862 | 34912 ft | 470 kts | 128° |
| 2026-05-05 17:26 | 46.92282 | 14.15601 | 34913 ft | 470 kts | 128° |
| 2026-05-05 17:27 | 46.88434 | 14.23321 | 34925 ft | 470 kts | 128° |
| 2026-05-05 17:27 | 46.84573 | 14.31047 | 34933 ft | 470 kts | 128° |
| 2026-05-05 17:28 | 46.80708 | 14.38757 | 34935 ft | 470 kts | 128° |
| 2026-05-05 17:28 | 46.76832 | 14.46467 | 34931 ft | 470 kts | 128° |
| 2026-05-05 17:29 | 46.72954 | 14.54159 | 34935 ft | 470 kts | 128° |
| 2026-05-05 17:29 | 46.69097 | 14.61793 | 34930 ft | 471 kts | 128° |
| 2026-05-05 17:30 | 46.65206 | 14.69473 | 34927 ft | 471 kts | 129° |
| 2026-05-05 17:30 | 46.61315 | 14.77129 | 34942 ft | 470 kts | 129° |
| 2026-05-05 17:31 | 46.57416 | 14.84779 | 34949 ft | 470 kts | 129° |
| 2026-05-05 17:31 | 46.53519 | 14.92405 | 34950 ft | 470 kts | 129° |
| 2026-05-05 17:32 | 46.49621 | 15.00014 | 34947 ft | 469 kts | 129° |
| 2026-05-05 17:32 | 46.45743 | 15.07561 | 34940 ft | 469 kts | 129° |
| 2026-05-05 17:33 | 46.41847 | 15.15125 | 34955 ft | 468 kts | 129° |
| 2026-05-05 17:33 | 46.37949 | 15.22672 | 34953 ft | 468 kts | 129° |
| 2026-05-05 17:34 | 46.34040 | 15.30217 | 34951 ft | 468 kts | 129° |
| 2026-05-05 17:34 | 46.30135 | 15.37738 | 34956 ft | 467 kts | 129° |
| 2026-05-05 17:35 | 46.26220 | 15.45256 | 34954 ft | 467 kts | 129° |
| 2026-05-05 17:35 | 46.22313 | 15.52744 | 34947 ft | 467 kts | 129° |
| 2026-05-05 17:36 | 46.18398 | 15.60223 | 34949 ft | 466 kts | 129° |
| 2026-05-05 17:36 | 46.14240 | 15.67367 | 34955 ft | 464 kts | 135° |
| 2026-05-05 17:37 | 46.09742 | 15.74036 | 34957 ft | 463 kts | 137° |
| 2026-05-05 17:37 | 46.05234 | 15.80652 | 34962 ft | 463 kts | 136° |
| 2026-05-05 17:38 | 46.00779 | 15.87278 | 34965 ft | 463 kts | 136° |
| 2026-05-05 17:38 | 45.96316 | 15.93963 | 34976 ft | 463 kts | 136° |
| 2026-05-05 17:39 | 45.91853 | 16.00640 | 34976 ft | 463 kts | 136° |
| 2026-05-05 17:39 | 45.87377 | 16.07314 | 34985 ft | 463 kts | 136° |
| 2026-05-05 17:40 | 45.82901 | 16.13974 | 34972 ft | 464 kts | 136° |
| 2026-05-05 17:40 | 45.78421 | 16.20621 | 34966 ft | 464 kts | 136° |
| 2026-05-05 17:41 | 45.73957 | 16.27226 | 34960 ft | 464 kts | 136° |
| 2026-05-05 17:41 | 45.69456 | 16.33870 | 34965 ft | 464 kts | 136° |
| 2026-05-05 17:42 | 45.64952 | 16.40507 | 34970 ft | 465 kts | 136° |
| 2026-05-05 17:42 | 45.60443 | 16.47135 | 34972 ft | 465 kts | 136° |
| 2026-05-05 17:43 | 45.55925 | 16.53753 | 34973 ft | 466 kts | 136° |
| 2026-05-05 17:43 | 45.51393 | 16.60377 | 34973 ft | 467 kts | 137° |
| 2026-05-05 17:44 | 45.46851 | 16.66998 | 34972 ft | 467 kts | 137° |
| 2026-05-05 17:44 | 45.42295 | 16.73627 | 34979 ft | 468 kts | 137° |
| 2026-05-05 17:45 | 45.37768 | 16.80196 | 34985 ft | 469 kts | 137° |
| 2026-05-05 17:45 | 45.33187 | 16.86831 | 34981 ft | 470 kts | 137° |
| 2026-05-05 17:46 | 45.28598 | 16.93459 | 34985 ft | 470 kts | 137° |
| 2026-05-05 17:46 | 45.23999 | 17.00084 | 34990 ft | 471 kts | 137° |
| 2026-05-05 17:47 | 45.19388 | 17.06713 | 34987 ft | 472 kts | 137° |
| 2026-05-05 17:47 | 45.14767 | 17.13340 | 34983 ft | 473 kts | 137° |
| 2026-05-05 17:48 | 45.10353 | 17.20268 | 35000 ft | 475 kts | 132° |
| 2026-05-05 17:48 | 45.06190 | 17.27451 | 34987 ft | 475 kts | 131° |
| 2026-05-05 17:49 | 45.02006 | 17.34684 | 34985 ft | 475 kts | 132° |
| 2026-05-05 17:49 | 44.97796 | 17.41872 | 34986 ft | 474 kts | 132° |
| 2026-05-05 17:50 | 44.93574 | 17.49024 | 34987 ft | 474 kts | 132° |
| 2026-05-05 17:50 | 44.89345 | 17.56164 | 34982 ft | 474 kts | 132° |
| 2026-05-05 17:51 | 44.85107 | 17.63303 | 34996 ft | 473 kts | 133° |
| 2026-05-05 17:51 | 44.80877 | 17.70410 | 34986 ft | 473 kts | 133° |
| 2026-05-05 17:52 | 44.76639 | 17.77513 | 34996 ft | 473 kts | 133° |
| 2026-05-05 17:52 | 44.72428 | 17.84557 | 34983 ft | 473 kts | 133° |
| 2026-05-05 17:53 | 44.68191 | 17.91625 | 34984 ft | 472 kts | 133° |
| 2026-05-05 17:53 | 44.63954 | 17.98677 | 35006 ft | 472 kts | 133° |
| 2026-05-05 17:54 | 44.59712 | 18.05715 | 34985 ft | 473 kts | 133° |
| 2026-05-05 17:54 | 44.55459 | 18.12757 | 34993 ft | 473 kts | 133° |
| 2026-05-05 17:55 | 44.51199 | 18.19793 | 34995 ft | 473 kts | 133° |
| 2026-05-05 17:55 | 44.46929 | 18.26830 | 35004 ft | 473 kts | 133° |
| 2026-05-05 17:56 | 44.42660 | 18.33848 | 35002 ft | 474 kts | 133° |
| 2026-05-05 17:56 | 44.38384 | 18.40860 | 35009 ft | 474 kts | 133° |
| 2026-05-05 17:57 | 44.34129 | 18.47823 | 35010 ft | 474 kts | 133° |
| 2026-05-05 17:57 | 44.29842 | 18.54819 | 34997 ft | 474 kts | 133° |
| 2026-05-05 17:58 | 44.25570 | 18.61855 | 35009 ft | 474 kts | 132° |
| 2026-05-05 17:58 | 44.21323 | 18.68893 | 35007 ft | 474 kts | 132° |
| 2026-05-05 17:59 | 44.17064 | 18.75931 | 35019 ft | 475 kts | 132° |
| 2026-05-05 17:59 | 44.12787 | 18.82970 | 35012 ft | 476 kts | 132° |
| 2026-05-05 18:00 | 44.08527 | 18.89960 | 35018 ft | 476 kts | 132° |
| 2026-05-05 18:00 | 44.04232 | 18.96993 | 35017 ft | 477 kts | 132° |
| 2026-05-05 18:01 | 43.99924 | 19.04027 | 35027 ft | 479 kts | 132° |
| 2026-05-05 18:01 | 43.95575 | 19.11112 | 35156 ft | 485 kts | 132° |
| 2026-05-05 18:01 | 43.93374 | 19.14690 | 35317 ft | 485 kts | 132° |
| 2026-05-05 18:02 | 43.91188 | 19.18242 | 35570 ft | 483 kts | 131° |
| 2026-05-05 18:02 | 43.89009 | 19.21778 | 35786 ft | 482 kts | 132° |
| 2026-05-05 18:02 | 43.86851 | 19.25272 | 35904 ft | 484 kts | 132° |
| 2026-05-05 18:02 | 43.84655 | 19.28823 | 36053 ft | 485 kts | 131° |
| 2026-05-05 18:03 | 43.82462 | 19.32367 | 36232 ft | 484 kts | 131° |
| 2026-05-05 18:03 | 43.80265 | 19.35912 | 36452 ft | 483 kts | 131° |
| 2026-05-05 18:03 | 43.78080 | 19.39435 | 36633 ft | 482 kts | 131° |
| 2026-05-05 18:03 | 43.75898 | 19.42949 | 36879 ft | 480 kts | 131° |
| 2026-05-05 18:04 | 43.73722 | 19.46449 | 37006 ft | 480 kts | 131° |
| 2026-05-05 18:04 | 43.69381 | 19.53418 | 36980 ft | 473 kts | 131° |
| 2026-05-05 18:05 | 43.65140 | 19.60209 | 36986 ft | 468 kts | 131° |
| 2026-05-05 18:05 | 43.60881 | 19.67012 | 36977 ft | 468 kts | 131° |
| 2026-05-05 18:06 | 43.57316 | 19.72694 | 36981 ft | 467 kts | 131° |
| 2026-05-05 18:06 | 43.53077 | 19.79432 | 36981 ft | 467 kts | 131° |
| 2026-05-05 18:07 | 43.48806 | 19.86211 | 36987 ft | 469 kts | 131° |
| 2026-05-05 18:07 | 43.44516 | 19.93005 | 36987 ft | 470 kts | 131° |
| 2026-05-05 18:08 | 43.40215 | 19.99799 | 36983 ft | 472 kts | 131° |
| 2026-05-05 18:08 | 43.35923 | 20.06561 | 36985 ft | 474 kts | 131° |
| 2026-05-05 18:09 | 43.31577 | 20.13391 | 36980 ft | 475 kts | 131° |
| 2026-05-05 18:09 | 43.27223 | 20.20218 | 36983 ft | 476 kts | 131° |
| 2026-05-05 18:10 | 43.22851 | 20.27061 | 36978 ft | 477 kts | 131° |
| 2026-05-05 18:10 | 43.18474 | 20.33895 | 36980 ft | 477 kts | 131° |
| 2026-05-05 18:11 | 43.14084 | 20.40732 | 36987 ft | 478 kts | 131° |
| 2026-05-05 18:11 | 43.09693 | 20.47555 | 36984 ft | 477 kts | 131° |
| 2026-05-05 18:12 | 43.05301 | 20.54363 | 36993 ft | 477 kts | 131° |
| 2026-05-05 18:12 | 43.00910 | 20.61155 | 37001 ft | 476 kts | 131° |
| 2026-05-05 18:13 | 42.96297 | 20.67642 | 37003 ft | 476 kts | 137° |
| 2026-05-05 18:13 | 42.91461 | 20.73822 | 37005 ft | 476 kts | 137° |
| 2026-05-05 18:14 | 42.86658 | 20.79956 | 37011 ft | 475 kts | 137° |
| 2026-05-05 18:14 | 42.81887 | 20.86130 | 37008 ft | 476 kts | 137° |
| 2026-05-05 18:15 | 42.77093 | 20.92359 | 37016 ft | 476 kts | 137° |
| 2026-05-05 18:15 | 42.72295 | 20.98584 | 37018 ft | 476 kts | 137° |
| 2026-05-05 18:16 | 42.67498 | 21.04792 | 37023 ft | 477 kts | 137° |
| 2026-05-05 18:16 | 42.62713 | 21.10968 | 37020 ft | 477 kts | 137° |
| 2026-05-05 18:17 | 42.57891 | 21.17177 | 37020 ft | 478 kts | 137° |
| 2026-05-05 18:17 | 42.53057 | 21.23387 | 37021 ft | 479 kts | 137° |
| 2026-05-05 18:18 | 42.48200 | 21.29612 | 37016 ft | 480 kts | 137° |
| 2026-05-05 18:18 | 42.43344 | 21.35822 | 37021 ft | 480 kts | 137° |
| 2026-05-05 18:19 | 42.38516 | 21.41984 | 37020 ft | 480 kts | 137° |
| 2026-05-05 18:19 | 42.33614 | 21.48227 | 37014 ft | 481 kts | 137° |
| 2026-05-05 18:20 | 42.28763 | 21.54392 | 37005 ft | 482 kts | 137° |
| 2026-05-05 18:20 | 42.23868 | 21.60599 | 36996 ft | 482 kts | 137° |
| 2026-05-05 18:21 | 42.19033 | 21.66863 | 36999 ft | 481 kts | 135° |
| 2026-05-05 18:21 | 42.14270 | 21.73221 | 37001 ft | 481 kts | 135° |
| 2026-05-05 18:22 | 42.09519 | 21.79554 | 36996 ft | 481 kts | 135° |
| 2026-05-05 18:22 | 42.04749 | 21.85867 | 37001 ft | 480 kts | 135° |
| 2026-05-05 18:23 | 41.99999 | 21.92124 | 36992 ft | 481 kts | 135° |
| 2026-05-05 18:23 | 41.95219 | 21.98407 | 37004 ft | 481 kts | 135° |
| 2026-05-05 18:24 | 41.90421 | 22.04700 | 36998 ft | 481 kts | 135° |
| 2026-05-05 18:24 | 41.85631 | 22.10970 | 37001 ft | 481 kts | 135° |
| 2026-05-05 18:25 | 41.80834 | 22.17235 | 37010 ft | 481 kts | 135° |
| 2026-05-05 18:25 | 41.76038 | 22.23482 | 37012 ft | 481 kts | 135° |
| 2026-05-05 18:26 | 41.71233 | 22.29732 | 36997 ft | 482 kts | 135° |
| 2026-05-05 18:26 | 41.66453 | 22.35936 | 36995 ft | 482 kts | 135° |
| 2026-05-05 18:27 | 41.61636 | 22.42171 | 37002 ft | 482 kts | 135° |
| 2026-05-05 18:27 | 41.56811 | 22.48405 | 37017 ft | 482 kts | 135° |
| 2026-05-05 18:28 | 41.49557 | 22.57751 | 37007 ft | 483 kts | 136° |
| 2026-05-05 18:28 | 41.44712 | 22.63975 | 37006 ft | 484 kts | 135° |
| 2026-05-05 18:29 | 41.39893 | 22.70153 | 37013 ft | 485 kts | 136° |
| 2026-05-05 18:29 | 41.35016 | 22.76396 | 37014 ft | 486 kts | 136° |
| 2026-05-05 18:30 | 41.30286 | 22.82836 | 37011 ft | 486 kts | 130° |
| 2026-05-05 18:30 | 41.25889 | 22.89689 | 37013 ft | 487 kts | 129° |
| 2026-05-05 18:31 | 41.21529 | 22.96585 | 37012 ft | 488 kts | 129° |
| 2026-05-05 18:31 | 41.17115 | 23.03457 | 37010 ft | 489 kts | 129° |
| 2026-05-05 18:32 | 41.12693 | 23.10260 | 37012 ft | 490 kts | 130° |
| 2026-05-05 18:32 | 41.08230 | 23.17092 | 37003 ft | 490 kts | 130° |
| 2026-05-05 18:33 | 41.03764 | 23.23915 | 37011 ft | 489 kts | 130° |
| 2026-05-05 18:33 | 40.99304 | 23.30716 | 37010 ft | 489 kts | 130° |
| 2026-05-05 18:34 | 40.94843 | 23.37507 | 37009 ft | 488 kts | 130° |
| 2026-05-05 18:34 | 40.90370 | 23.44298 | 37008 ft | 488 kts | 130° |
| 2026-05-05 18:35 | 40.85908 | 23.51061 | 37010 ft | 488 kts | 130° |
| 2026-05-05 18:35 | 40.81467 | 23.57773 | 37012 ft | 488 kts | 130° |
| 2026-05-05 18:36 | 40.77002 | 23.64508 | 37015 ft | 487 kts | 130° |
| 2026-05-05 18:36 | 40.72528 | 23.71241 | 37014 ft | 487 kts | 130° |
| 2026-05-05 18:37 | 40.68062 | 23.77951 | 37019 ft | 486 kts | 130° |
| 2026-05-05 18:37 | 40.63590 | 23.84651 | 37029 ft | 487 kts | 130° |
| 2026-05-05 18:38 | 40.59117 | 23.91340 | 37027 ft | 487 kts | 130° |
| 2026-05-05 18:38 | 40.54630 | 23.98035 | 37027 ft | 487 kts | 130° |
| 2026-05-05 18:39 | 40.50138 | 24.04721 | 37041 ft | 488 kts | 130° |
| 2026-05-05 18:39 | 40.45645 | 24.11397 | 37030 ft | 488 kts | 130° |
| 2026-05-05 18:40 | 40.41141 | 24.18074 | 37043 ft | 488 kts | 130° |
| 2026-05-05 18:40 | 40.36630 | 24.24745 | 37033 ft | 489 kts | 130° |
| 2026-05-05 18:41 | 40.32133 | 24.31378 | 37033 ft | 489 kts | 130° |
| 2026-05-05 18:41 | 40.27615 | 24.38033 | 37038 ft | 489 kts | 130° |
| 2026-05-05 18:42 | 40.23074 | 24.44705 | 37039 ft | 490 kts | 130° |
| 2026-05-05 18:42 | 40.18532 | 24.51366 | 37037 ft | 489 kts | 130° |
| 2026-05-05 18:43 | 40.14024 | 24.57958 | 37045 ft | 489 kts | 130° |
| 2026-05-05 18:43 | 40.09481 | 24.64588 | 37029 ft | 488 kts | 130° |
| 2026-05-05 18:44 | 40.04943 | 24.71199 | 37051 ft | 487 kts | 130° |
| 2026-05-05 18:44 | 40.00438 | 24.77749 | 37046 ft | 486 kts | 130° |
| 2026-05-05 18:45 | 39.95917 | 24.84302 | 37045 ft | 486 kts | 130° |
| 2026-05-05 18:45 | 39.91391 | 24.90855 | 37051 ft | 486 kts | 131° |
| 2026-05-05 18:46 | 39.86866 | 24.97391 | 37051 ft | 486 kts | 131° |
| 2026-05-05 18:46 | 39.82329 | 25.03929 | 37043 ft | 486 kts | 131° |
| 2026-05-05 18:47 | 39.77785 | 25.10457 | 37047 ft | 486 kts | 131° |
| 2026-05-05 18:47 | 39.73239 | 25.16977 | 37045 ft | 487 kts | 131° |
| 2026-05-05 18:48 | 39.68715 | 25.23461 | 37054 ft | 487 kts | 131° |
| 2026-05-05 18:48 | 39.64158 | 25.29978 | 37042 ft | 487 kts | 131° |
| 2026-05-05 18:49 | 39.59595 | 25.36485 | 37049 ft | 487 kts | 131° |
| 2026-05-05 18:49 | 39.55033 | 25.42977 | 37046 ft | 487 kts | 131° |
| 2026-05-05 18:50 | 39.50461 | 25.49467 | 37045 ft | 487 kts | 131° |
| 2026-05-05 18:50 | 39.45887 | 25.55945 | 37044 ft | 487 kts | 131° |
| 2026-05-05 18:51 | 39.41344 | 25.62367 | 37050 ft | 486 kts | 131° |
| 2026-05-05 18:51 | 39.36775 | 25.68816 | 37044 ft | 486 kts | 131° |
| 2026-05-05 18:52 | 39.32976 | 25.74169 | 37049 ft | 486 kts | 131° |
| 2026-05-05 18:52 | 39.28407 | 25.80591 | 37042 ft | 485 kts | 131° |
| 2026-05-05 18:53 | 39.23837 | 25.87000 | 37049 ft | 485 kts | 131° |
| 2026-05-05 18:53 | 39.19255 | 25.93416 | 37046 ft | 486 kts | 131° |
| 2026-05-05 18:54 | 39.14666 | 25.99824 | 37041 ft | 487 kts | 131° |
| 2026-05-05 18:54 | 39.10064 | 26.06240 | 37052 ft | 487 kts | 131° |
| 2026-05-05 18:55 | 39.05459 | 26.12648 | 37051 ft | 487 kts | 132° |
| 2026-05-05 18:55 | 39.00880 | 26.19007 | 37047 ft | 487 kts | 132° |
| 2026-05-05 18:56 | 38.96262 | 26.25406 | 37044 ft | 487 kts | 132° |
| 2026-05-05 18:56 | 38.91653 | 26.31779 | 37049 ft | 487 kts | 132° |
| 2026-05-05 18:57 | 38.87061 | 26.38122 | 37042 ft | 487 kts | 131° |
| 2026-05-05 18:57 | 38.84999 | 26.41554 | 37033 ft | 485 kts | 119° |
| 2026-05-05 18:57 | 38.83468 | 26.45393 | 37057 ft | 481 kts | 109° |
| 2026-05-05 18:58 | 38.82434 | 26.49458 | 37045 ft | 477 kts | 98° |
| 2026-05-05 18:58 | 38.81888 | 26.53653 | 37059 ft | 475 kts | 95° |
| 2026-05-05 18:58 | 38.80957 | 26.62055 | 37046 ft | 476 kts | 95° |
| 2026-05-05 18:59 | 38.79969 | 26.70451 | 37051 ft | 477 kts | 95° |
| 2026-05-05 18:59 | 38.78932 | 26.78809 | 37050 ft | 478 kts | 96° |
| 2026-05-05 19:00 | 38.77877 | 26.87236 | 37049 ft | 479 kts | 96° |
| 2026-05-05 19:00 | 38.76067 | 26.95441 | 37053 ft | 485 kts | 119° |
| 2026-05-05 19:01 | 38.74110 | 26.98945 | 37045 ft | 487 kts | 133° |
| 2026-05-05 19:01 | 38.71544 | 27.01783 | 37057 ft | 486 kts | 144° |
| 2026-05-05 19:01 | 38.66039 | 27.06841 | 37053 ft | 488 kts | 144° |
| 2026-05-05 19:02 | 38.60533 | 27.11930 | 37041 ft | 488 kts | 144° |
| 2026-05-05 19:02 | 38.55091 | 27.17034 | 37044 ft | 488 kts | 144° |
| 2026-05-05 19:03 | 38.49621 | 27.22193 | 37038 ft | 489 kts | 144° |
| 2026-05-05 19:03 | 38.44157 | 27.27341 | 37047 ft | 488 kts | 144° |
| 2026-05-05 19:04 | 38.41420 | 27.29914 | 36820 ft | 488 kts | 144° |
| 2026-05-05 19:04 | 38.38693 | 27.32474 | 36565 ft | 486 kts | 144° |
| 2026-05-05 19:04 | 38.35980 | 27.35019 | 36327 ft | 482 kts | 144° |
| 2026-05-05 19:04 | 38.33283 | 27.37547 | 36061 ft | 481 kts | 144° |
| 2026-05-05 19:05 | 38.30578 | 27.40081 | 35812 ft | 483 kts | 144° |
| 2026-05-05 19:05 | 38.27864 | 27.42619 | 35568 ft | 485 kts | 144° |
| 2026-05-05 19:05 | 38.25134 | 27.45168 | 35329 ft | 488 kts | 144° |
| 2026-05-05 19:05 | 38.22389 | 27.47732 | 35077 ft | 491 kts | 144° |
| 2026-05-05 19:06 | 38.19664 | 27.50272 | 34845 ft | 493 kts | 144° |
| 2026-05-05 19:06 | 38.16857 | 27.52886 | 34600 ft | 495 kts | 144° |
| 2026-05-05 19:06 | 38.14074 | 27.55474 | 34356 ft | 497 kts | 144° |
| 2026-05-05 19:06 | 38.11277 | 27.58073 | 34111 ft | 498 kts | 144° |
| 2026-05-05 19:07 | 38.08483 | 27.60670 | 33866 ft | 499 kts | 144° |
| 2026-05-05 19:07 | 38.05720 | 27.63236 | 33617 ft | 498 kts | 144° |
| 2026-05-05 19:07 | 38.02922 | 27.65830 | 33376 ft | 497 kts | 144° |
| 2026-05-05 19:07 | 38.00133 | 27.68412 | 33120 ft | 497 kts | 144° |
| 2026-05-05 19:08 | 37.97343 | 27.70992 | 32872 ft | 496 kts | 144° |
| 2026-05-05 19:08 | 37.94574 | 27.73551 | 32602 ft | 488 kts | 144° |
| 2026-05-05 19:08 | 37.91857 | 27.76062 | 32343 ft | 480 kts | 144° |
| 2026-05-05 19:08 | 37.89191 | 27.78523 | 32070 ft | 468 kts | 144° |
| 2026-05-05 19:09 | 37.86580 | 27.80930 | 31821 ft | 461 kts | 144° |
| 2026-05-05 19:09 | 37.84002 | 27.83304 | 31565 ft | 458 kts | 144° |
| 2026-05-05 19:09 | 37.81396 | 27.85701 | 31353 ft | 470 kts | 144° |
| 2026-05-05 19:09 | 37.78707 | 27.88172 | 31126 ft | 483 kts | 144° |
| 2026-05-05 19:10 | 37.75956 | 27.90697 | 30904 ft | 495 kts | 144° |
| 2026-05-05 19:10 | 37.73133 | 27.93286 | 30660 ft | 504 kts | 144° |
| 2026-05-05 19:10 | 37.70289 | 27.95894 | 30401 ft | 504 kts | 144° |
| 2026-05-05 19:10 | 37.67466 | 27.98480 | 30143 ft | 500 kts | 144° |
| 2026-05-05 19:11 | 37.64657 | 28.01051 | 29884 ft | 498 kts | 144° |
| 2026-05-05 19:11 | 37.61845 | 28.03622 | 29646 ft | 499 kts | 144° |
| 2026-05-05 19:11 | 37.59034 | 28.06190 | 29399 ft | 500 kts | 144° |
| 2026-05-05 19:11 | 37.56216 | 28.08759 | 29159 ft | 499 kts | 144° |
| 2026-05-05 19:12 | 37.50617 | 28.13858 | 29047 ft | 500 kts | 144° |
| 2026-05-05 19:12 | 37.44972 | 28.18994 | 29043 ft | 500 kts | 144° |
| 2026-05-05 19:13 | 37.39335 | 28.24112 | 29036 ft | 498 kts | 145° |
| 2026-05-05 19:13 | 37.33711 | 28.29206 | 29050 ft | 497 kts | 145° |
| 2026-05-05 19:14 | 37.28094 | 28.34285 | 29046 ft | 497 kts | 145° |
| 2026-05-05 19:14 | 37.22480 | 28.39351 | 29049 ft | 497 kts | 145° |
| 2026-05-05 19:15 | 37.16897 | 28.44379 | 29050 ft | 497 kts | 146° |
| 2026-05-05 19:15 | 37.11263 | 28.49444 | 29034 ft | 499 kts | 146° |
| 2026-05-05 19:16 | 37.05613 | 28.54511 | 29032 ft | 499 kts | 146° |
| 2026-05-05 19:16 | 36.99958 | 28.59577 | 29030 ft | 500 kts | 146° |
| 2026-05-05 19:17 | 36.94293 | 28.64645 | 29027 ft | 500 kts | 146° |
| 2026-05-05 19:17 | 36.88620 | 28.69708 | 29027 ft | 500 kts | 146° |
| 2026-05-05 19:18 | 36.82981 | 28.74731 | 29033 ft | 500 kts | 146° |
| 2026-05-05 19:18 | 36.77305 | 28.79777 | 29021 ft | 501 kts | 146° |
| 2026-05-05 19:19 | 36.71631 | 28.84813 | 29026 ft | 501 kts | 146° |
| 2026-05-05 19:19 | 36.65948 | 28.89848 | 29024 ft | 501 kts | 146° |
| 2026-05-05 19:20 | 36.60261 | 28.94875 | 29017 ft | 500 kts | 147° |
| 2026-05-05 19:20 | 36.54581 | 28.99888 | 29017 ft | 499 kts | 147° |
| 2026-05-05 19:21 | 36.48916 | 29.04880 | 29027 ft | 498 kts | 147° |
| 2026-05-05 19:21 | 36.43299 | 29.09820 | 29029 ft | 497 kts | 147° |
| 2026-05-05 19:22 | 36.37650 | 29.14777 | 29024 ft | 497 kts | 147° |
| 2026-05-05 19:22 | 36.31995 | 29.19736 | 29034 ft | 496 kts | 147° |
| 2026-05-05 19:23 | 36.26350 | 29.24673 | 29029 ft | 497 kts | 147° |
| 2026-05-05 19:23 | 36.20717 | 29.29653 | 29032 ft | 497 kts | 143° |
| 2026-05-05 19:24 | 36.16011 | 29.35879 | 29033 ft | 501 kts | 124° |
| 2026-05-05 19:24 | 36.12329 | 29.43206 | 29024 ft | 501 kts | 122° |
| 2026-05-05 19:25 | 36.08670 | 29.50573 | 29018 ft | 502 kts | 122° |
| 2026-05-05 19:25 | 36.04964 | 29.57887 | 29019 ft | 502 kts | 123° |
| 2026-05-05 19:26 | 36.01227 | 29.65183 | 29018 ft | 502 kts | 123° |
| 2026-05-05 19:26 | 35.97490 | 29.72463 | 29018 ft | 502 kts | 123° |
| 2026-05-05 19:27 | 35.93771 | 29.79699 | 29018 ft | 502 kts | 123° |
| 2026-05-05 19:27 | 35.90022 | 29.86980 | 29019 ft | 502 kts | 123° |
| 2026-05-05 19:28 | 35.86269 | 29.94256 | 29018 ft | 502 kts | 123° |
| 2026-05-05 19:28 | 35.82801 | 30.01736 | 29009 ft | 503 kts | 112° |
| 2026-05-05 19:29 | 35.80672 | 30.09953 | 29016 ft | 503 kts | 106° |
| 2026-05-05 19:29 | 35.78691 | 30.18219 | 29014 ft | 503 kts | 106° |
| 2026-05-05 19:30 | 35.76655 | 30.26456 | 29017 ft | 503 kts | 107° |
| 2026-05-05 19:30 | 35.74575 | 30.34681 | 29018 ft | 503 kts | 107° |
| 2026-05-05 19:31 | 35.72484 | 30.42899 | 29019 ft | 503 kts | 107° |
| 2026-05-05 19:31 | 35.70401 | 30.51075 | 29017 ft | 504 kts | 107° |
| 2026-05-05 19:32 | 35.68303 | 30.59298 | 29018 ft | 503 kts | 107° |
| 2026-05-05 19:32 | 35.66201 | 30.67512 | 29019 ft | 503 kts | 107° |
| 2026-05-05 19:33 | 35.64091 | 30.75722 | 29018 ft | 503 kts | 107° |
| 2026-05-05 19:33 | 35.61912 | 30.83902 | 29017 ft | 503 kts | 112° |
| 2026-05-05 19:34 | 35.58484 | 30.91360 | 29036 ft | 501 kts | 125° |
| 2026-05-05 19:35 | 35.52620 | 31.02016 | 29029 ft | 502 kts | 125° |
| 2026-05-05 19:35 | 35.50693 | 31.05552 | 28381 ft | 508 kts | 125° |
| 2026-05-05 19:35 | 35.48741 | 31.09159 | 27616 ft | 507 kts | 124° |
| 2026-05-05 19:35 | 35.46796 | 31.12772 | 26785 ft | 507 kts | 124° |
| 2026-05-05 19:36 | 35.44852 | 31.16387 | 25911 ft | 507 kts | 124° |
| 2026-05-05 19:36 | 35.43566 | 31.18779 | 25333 ft | 507 kts | 124° |
| 2026-05-05 19:36 | 35.41630 | 31.22377 | 24702 ft | 502 kts | 124° |
| 2026-05-05 19:36 | 35.39713 | 31.25934 | 24049 ft | 497 kts | 124° |
| 2026-05-05 19:37 | 35.37816 | 31.29448 | 23405 ft | 492 kts | 124° |
| 2026-05-05 19:37 | 35.35934 | 31.32930 | 22766 ft | 487 kts | 124° |
| 2026-05-05 19:37 | 35.34073 | 31.36368 | 22117 ft | 482 kts | 124° |
| 2026-05-05 19:37 | 35.32227 | 31.39772 | 21485 ft | 477 kts | 124° |
| 2026-05-05 19:38 | 35.30399 | 31.43141 | 20862 ft | 473 kts | 124° |
| 2026-05-05 19:38 | 35.28589 | 31.46473 | 20234 ft | 468 kts | 124° |
| 2026-05-05 19:38 | 35.26794 | 31.49775 | 19618 ft | 464 kts | 124° |
| 2026-05-05 19:38 | 35.25017 | 31.53042 | 18995 ft | 459 kts | 124° |
| 2026-05-05 19:39 | 35.23253 | 31.56284 | 18377 ft | 454 kts | 124° |
| 2026-05-05 19:39 | 35.21508 | 31.59488 | 17762 ft | 450 kts | 123° |
| 2026-05-05 19:39 | 35.19782 | 31.62651 | 17164 ft | 445 kts | 123° |
| 2026-05-05 19:39 | 35.18094 | 31.65740 | 16561 ft | 441 kts | 124° |
| 2026-05-05 19:40 | 35.16401 | 31.68837 | 15961 ft | 436 kts | 124° |
| 2026-05-05 19:40 | 35.14725 | 31.71900 | 15365 ft | 432 kts | 124° |
| 2026-05-05 19:40 | 35.13060 | 31.74942 | 14774 ft | 427 kts | 124° |
| 2026-05-05 19:40 | 35.11417 | 31.77942 | 14279 ft | 420 kts | 124° |
| 2026-05-05 19:41 | 35.09826 | 31.80844 | 14122 ft | 405 kts | 124° |
| 2026-05-05 19:41 | 35.08282 | 31.83657 | 13947 ft | 392 kts | 124° |
| 2026-05-05 19:41 | 35.06768 | 31.86410 | 13687 ft | 391 kts | 124° |
| 2026-05-05 19:41 | 35.05218 | 31.89224 | 13451 ft | 405 kts | 124° |
| 2026-05-05 19:42 | 35.03638 | 31.92092 | 13216 ft | 410 kts | 124° |
| 2026-05-05 19:42 | 35.02050 | 31.94973 | 12954 ft | 405 kts | 124° |
| 2026-05-05 19:42 | 35.00483 | 31.97817 | 12427 ft | 402 kts | 124° |
| 2026-05-05 19:42 | 34.98935 | 32.00623 | 11896 ft | 397 kts | 124° |
| 2026-05-05 19:43 | 34.97420 | 32.03367 | 11373 ft | 393 kts | 123° |
| 2026-05-05 19:43 | 34.95923 | 32.06076 | 11199 ft | 379 kts | 123° |
| 2026-05-05 19:43 | 34.94535 | 32.08587 | 10966 ft | 369 kts | 123° |
| 2026-05-05 19:43 | 34.93277 | 32.10862 | 10813 ft | 359 kts | 123° |
| 2026-05-05 19:44 | 34.91900 | 32.13349 | 10650 ft | 348 kts | 123° |
| 2026-05-05 19:44 | 34.90436 | 32.15638 | 10462 ft | 339 kts | 137° |
| 2026-05-05 19:44 | 34.88511 | 32.17205 | 10336 ft | 328 kts | 152° |
| 2026-05-05 19:44 | 34.86506 | 32.18426 | 10182 ft | 313 kts | 154° |
| 2026-05-05 19:45 | 34.84582 | 32.19540 | 10088 ft | 301 kts | 155° |
| 2026-05-05 19:45 | 34.82709 | 32.20614 | 9876 ft | 296 kts | 155° |
| 2026-05-05 19:45 | 34.80870 | 32.21662 | 9582 ft | 295 kts | 155° |
| 2026-05-05 19:45 | 34.79014 | 32.22716 | 9294 ft | 294 kts | 155° |
| 2026-05-05 19:46 | 34.77162 | 32.23764 | 9013 ft | 292 kts | 155° |
| 2026-05-05 19:46 | 34.75320 | 32.24804 | 8730 ft | 290 kts | 155° |
| 2026-05-05 19:46 | 34.73488 | 32.25836 | 8440 ft | 289 kts | 155° |
| 2026-05-05 19:46 | 34.71664 | 32.26864 | 8156 ft | 288 kts | 155° |
| 2026-05-05 19:47 | 34.69851 | 32.27886 | 7886 ft | 286 kts | 155° |
| 2026-05-05 19:47 | 34.68052 | 32.28902 | 7631 ft | 284 kts | 155° |
| 2026-05-05 19:47 | 34.66263 | 32.29913 | 7340 ft | 283 kts | 155° |
| 2026-05-05 19:47 | 34.64484 | 32.30933 | 7065 ft | 282 kts | 152° |
| 2026-05-05 19:48 | 34.62988 | 32.32440 | 6768 ft | 281 kts | 129° |
| 2026-05-05 19:48 | 34.61832 | 32.34287 | 6664 ft | 265 kts | 126° |
| 2026-05-05 19:48 | 34.60811 | 32.36018 | 6529 ft | 246 kts | 126° |
| 2026-05-05 19:48 | 34.59906 | 32.37697 | 6369 ft | 230 kts | 112° |
| 2026-05-05 19:49 | 34.59464 | 32.39488 | 6236 ft | 214 kts | 104° |
| 2026-05-05 19:49 | 34.59075 | 32.41229 | 5861 ft | 213 kts | 105° |
| 2026-05-05 19:49 | 34.58681 | 32.42973 | 5402 ft | 216 kts | 104° |
| 2026-05-05 19:49 | 34.58350 | 32.44769 | 4925 ft | 220 kts | 101° |
| 2026-05-05 19:50 | 34.58060 | 32.46602 | 4458 ft | 222 kts | 100° |
| 2026-05-05 19:50 | 34.57774 | 32.48447 | 3980 ft | 222 kts | 100° |
| 2026-05-05 19:50 | 34.57497 | 32.50257 | 3715 ft | 211 kts | 100° |
| 2026-05-05 19:50 | 34.57235 | 32.51971 | 3471 ft | 202 kts | 100° |
| 2026-05-05 19:51 | 34.56986 | 32.53601 | 3239 ft | 194 kts | 100° |
| 2026-05-05 19:51 | 34.56831 | 32.55212 | 3052 ft | 198 kts | 79° |
| 2026-05-05 19:51 | 34.57506 | 32.56592 | 3009 ft | 190 kts | 29° |
| 2026-05-05 19:51 | 34.58701 | 32.57136 | 3024 ft | 181 kts | 14° |
| 2026-05-05 19:52 | 34.59898 | 32.57654 | 2872 ft | 187 kts | 18° |
| 2026-05-05 19:52 | 34.61115 | 32.58249 | 2613 ft | 189 kts | 21° |
| 2026-05-05 19:52 | 34.62326 | 32.58883 | 2359 ft | 188 kts | 23° |
| 2026-05-05 19:52 | 34.63510 | 32.59527 | 2152 ft | 184 kts | 24° |
| 2026-05-05 19:53 | 34.64686 | 32.60179 | 2134 ft | 184 kts | 25° |
| 2026-05-05 19:53 | 34.65812 | 32.60807 | 2096 ft | 172 kts | 25° |
| 2026-05-05 19:53 | 34.66942 | 32.61198 | 2041 ft | 171 kts | 356° |
| 2026-05-05 19:53 | 34.67930 | 32.60544 | 1862 ft | 164 kts | 301° |
| 2026-05-05 19:54 | 34.68438 | 32.59303 | 1670 ft | 166 kts | 295° |
| 2026-05-05 19:54 | 34.68913 | 32.58034 | 1451 ft | 164 kts | 291° |
| 2026-05-05 19:54 | 34.69317 | 32.56742 | 1242 ft | 163 kts | 290° |
| 2026-05-05 19:54 | 34.69700 | 32.55470 | 1023 ft | 162 kts | 290° |
| 2026-05-05 19:55 | 34.70090 | 32.54180 | 834 ft | 157 kts | 292° |
| 2026-05-05 19:55 | 34.70442 | 32.52961 | 711 ft | 151 kts | 291° |
| 2026-05-05 19:55 | 34.70799 | 32.51802 | 415 ft | 144 kts | 293° |
| 2026-05-05 19:55 | 34.71155 | 32.50653 | 209 ft | 145 kts | 292° |
| 2026-05-05 19:56 | 34.71501 | 32.49514 | 52 ft | 140 kts | 292° |
| 2026-05-05 19:56 | 34.71793 | 32.48566 | 43 ft | 91 kts | 290° |
| 2026-05-05 19:56 | 34.71925 | 32.48134 | 45 ft | 15 kts | 293° |
| 2026-05-05 19:56 | 34.71940 | 32.48094 | 46 ft | 1 kts | 215° |
| 2026-05-05 19:57 | 34.71931 | 32.48107 | 42 ft | 5 kts | 108° |
| 2026-05-05 19:57 | 34.71906 | 32.48198 | 44 ft | 18 kts | 111° |
| 2026-05-05 19:57 | 34.71849 | 32.48376 | 45 ft | 22 kts | 109° |
| 2026-05-05 19:57 | 34.71840 | 32.48404 | 45 ft | 1 kts | 114° |
| 2026-05-05 19:58 | 34.71833 | 32.48420 | 45 ft | 3 kts | 118° |
| 2026-05-05 19:58 | 34.71813 | 32.48431 | 45 ft | 3 kts | 182° |
| 2026-05-05 19:58 | 34.71791 | 32.48420 | 45 ft | 5 kts | 202° |
| 2026-05-05 19:58 | 34.71726 | 32.48389 | 45 ft | 15 kts | 201° |
| 2026-05-05 19:59 | 34.71606 | 32.48331 | 45 ft | 22 kts | 201° |
| 2026-05-05 19:59 | 34.71463 | 32.48267 | 43 ft | 19 kts | 199° |
| 2026-05-05 19:59 | 34.71394 | 32.48317 | 42 ft | 9 kts | 109° |
| 2026-05-05 19:59 | 34.71382 | 32.48361 | 45 ft | 1 kts | 108° |
| 2026-05-05 20:00 | 34.71381 | 32.48362 | 45 ft | 0 kts | 108° |
| 2026-05-05 20:00 | 34.71380 | 32.48367 | 45 ft | 1 kts | 108° |
| 2026-05-05 20:00 | 34.71377 | 32.48378 | 45 ft | 2 kts | 108° |
| 2026-05-05 20:00 | 34.71356 | 32.48388 | 44 ft | 8 kts | 178° |
| 2026-05-05 20:01 | 34.71285 | 32.48411 | 45 ft | 9 kts | 160° |
| 2026-05-05 20:01 | 34.71273 | 32.48416 | 45 ft | 0 kts | 160° |